sensor_id;sensor_type;location;lat;lon;timestamp;temperature;humidity
580;DHT22;276;48.392;9.950;2022-12-07T00:01:32;7.30;99.90
580;DHT22;276;48.392;9.950;2022-12-07T00:04:00;7.30;99.90
580;DHT22;276;48.392;9.950;2022-12-07T00:06:34;7.30;99.90
580;DHT22;276;48.392;9.950;2022-12-07T00:09:00;7.30;99.90
580;DHT22;276;48.392;9.950;2022-12-07T00:11:26;7.30;99.90
580;DHT22;276;48.392;9.950;2022-12-07T00:13:55;7.30;99.90
580;DHT22;276;48.392;9.950;2022-12-07T00:16:25;7.30;99.90
580;DHT22;276;48.392;9.950;2022-12-07T00:18:51;7.30;99.90
580;DHT22;276;48.392;9.950;2022-12-07T00:21:38;7.30;99.90
580;DHT22;276;48.392;9.950;2022-12-07T00:24:06;7.30;99.90
580;DHT22;276;48.392;9.950;2022-12-07T00:26:34;7.30;99.90
580;DHT22;276;48.392;9.950;2022-12-07T00:29:03;7.30;99.90
580;DHT22;276;48.392;9.950;2022-12-07T00:31:32;7.30;99.90
580;DHT22;276;48.392;9.950;2022-12-07T00:33:59;7.30;99.90
580;DHT22;276;48.392;9.950;2022-12-07T00:36:25;7.30;99.90
580;DHT22;276;48.392;9.950;2022-12-07T00:38:51;7.30;99.90
580;DHT22;276;48.392;9.950;2022-12-07T00:41:19;7.30;99.90
580;DHT22;276;48.392;9.950;2022-12-07T00:43:45;7.30;99.90
580;DHT22;276;48.392;9.950;2022-12-07T00:46:13;7.30;99.90
580;DHT22;276;48.392;9.950;2022-12-07T00:48:39;7.30;99.90
580;DHT22;276;48.392;9.950;2022-12-07T00:51:07;7.30;99.90
580;DHT22;276;48.392;9.950;2022-12-07T00:53:35;7.30;99.90
580;DHT22;276;48.392;9.950;2022-12-07T00:56:15;7.30;99.90
580;DHT22;276;48.392;9.950;2022-12-07T00:58:41;7.30;99.90
580;DHT22;276;48.392;9.950;2022-12-07T01:01:08;7.30;99.90
580;DHT22;276;48.392;9.950;2022-12-07T01:03:35;7.30;99.90
580;DHT22;276;48.392;9.950;2022-12-07T01:06:06;7.30;99.90
580;DHT22;276;48.392;9.950;2022-12-07T01:08:34;7.30;99.90
580;DHT22;276;48.392;9.950;2022-12-07T01:11:02;7.30;99.90
580;DHT22;276;48.392;9.950;2022-12-07T01:13:28;7.30;99.90
580;DHT22;276;48.392;9.950;2022-12-07T01:15:58;7.30;99.90
580;DHT22;276;48.392;9.950;2022-12-07T01:18:28;7.20;99.90
580;DHT22;276;48.392;9.950;2022-12-07T01:21:04;7.20;99.90
580;DHT22;276;48.392;9.950;2022-12-07T01:23:31;7.20;99.90
580;DHT22;276;48.392;9.950;2022-12-07T01:25:58;7.20;99.90
580;DHT22;276;48.392;9.950;2022-12-07T01:28:24;7.20;99.90
580;DHT22;276;48.392;9.950;2022-12-07T01:31:02;7.30;99.90
580;DHT22;276;48.392;9.950;2022-12-07T01:33:29;7.30;99.90
580;DHT22;276;48.392;9.950;2022-12-07T01:36:15;7.30;99.90
580;DHT22;276;48.392;9.950;2022-12-07T01:38:41;7.30;99.90
580;DHT22;276;48.392;9.950;2022-12-07T01:41:09;7.20;99.90
580;DHT22;276;48.392;9.950;2022-12-07T01:43:35;7.30;99.90
580;DHT22;276;48.392;9.950;2022-12-07T01:46:04;7.30;99.90
580;DHT22;276;48.392;9.950;2022-12-07T01:48:42;7.30;99.90
580;DHT22;276;48.392;9.950;2022-12-07T01:51:10;7.30;99.90
580;DHT22;276;48.392;9.950;2022-12-07T01:53:41;7.30;99.90
580;DHT22;276;48.392;9.950;2022-12-07T01:56:11;7.30;99.90
580;DHT22;276;48.392;9.950;2022-12-07T01:58:44;7.30;99.90
580;DHT22;276;48.392;9.950;2022-12-07T02:01:12;7.30;99.90
580;DHT22;276;48.392;9.950;2022-12-07T02:03:41;7.30;99.90
580;DHT22;276;48.392;9.950;2022-12-07T02:06:08;7.30;99.90
580;DHT22;276;48.392;9.950;2022-12-07T02:08:37;7.30;99.90
580;DHT22;276;48.392;9.950;2022-12-07T02:11:07;7.30;99.90
580;DHT22;276;48.392;9.950;2022-12-07T02:13:35;7.30;99.90
580;DHT22;276;48.392;9.950;2022-12-07T02:19:00;7.30;99.90
580;DHT22;276;48.392;9.950;2022-12-07T02:21:51;7.30;99.90
580;DHT22;276;48.392;9.950;2022-12-07T02:37:43;7.30;99.90
580;DHT22;276;48.392;9.950;2022-12-07T02:40:14;7.30;99.90
580;DHT22;276;48.392;9.950;2022-12-07T02:42:45;7.30;99.90
580;DHT22;276;48.392;9.950;2022-12-07T02:45:16;7.30;99.90
580;DHT22;276;48.392;9.950;2022-12-07T02:47:51;7.30;99.90
580;DHT22;276;48.392;9.950;2022-12-07T02:50:22;7.30;99.90
580;DHT22;276;48.392;9.950;2022-12-07T02:52:48;7.30;99.90
580;DHT22;276;48.392;9.950;2022-12-07T02:55:16;7.30;99.90
580;DHT22;276;48.392;9.950;2022-12-07T03:00:35;7.20;99.90
580;DHT22;276;48.392;9.950;2022-12-07T03:03:09;7.20;99.90
580;DHT22;276;48.392;9.950;2022-12-07T03:08:51;7.20;99.90
580;DHT22;276;48.392;9.950;2022-12-07T03:11:29;7.20;99.90
580;DHT22;276;48.392;9.950;2022-12-07T03:17:05;7.10;99.90
580;DHT22;276;48.392;9.950;2022-12-07T03:19:37;7.10;99.90
580;DHT22;276;48.392;9.950;2022-12-07T03:22:11;7.10;99.90
580;DHT22;276;48.392;9.950;2022-12-07T03:24:58;7.10;99.90
580;DHT22;276;48.392;9.950;2022-12-07T03:27:34;7.10;99.90
580;DHT22;276;48.392;9.950;2022-12-07T03:30:05;7.10;99.90
580;DHT22;276;48.392;9.950;2022-12-07T03:32:39;7.10;99.90
580;DHT22;276;48.392;9.950;2022-12-07T03:35:38;7.10;99.90
580;DHT22;276;48.392;9.950;2022-12-07T03:38:40;7.10;99.90
580;DHT22;276;48.392;9.950;2022-12-07T03:41:27;7.10;99.90
580;DHT22;276;48.392;9.950;2022-12-07T03:43:56;7.20;99.90
580;DHT22;276;48.392;9.950;2022-12-07T03:56:45;7.20;99.90
580;DHT22;276;48.392;9.950;2022-12-07T03:59:13;7.20;99.90
580;DHT22;276;48.392;9.950;2022-12-07T04:01:51;7.20;99.90
580;DHT22;276;48.392;9.950;2022-12-07T04:04:17;7.20;99.90
580;DHT22;276;48.392;9.950;2022-12-07T04:06:43;7.30;99.90
580;DHT22;276;48.392;9.950;2022-12-07T04:09:11;7.20;99.90
580;DHT22;276;48.392;9.950;2022-12-07T04:11:36;7.20;99.90
580;DHT22;276;48.392;9.950;2022-12-07T04:14:02;7.20;99.90
580;DHT22;276;48.392;9.950;2022-12-07T04:16:56;7.30;99.90
580;DHT22;276;48.392;9.950;2022-12-07T04:19:27;7.30;99.90
580;DHT22;276;48.392;9.950;2022-12-07T04:21:59;7.30;99.90
580;DHT22;276;48.392;9.950;2022-12-07T04:24:27;7.30;99.90
580;DHT22;276;48.392;9.950;2022-12-07T04:26:55;7.30;99.90
580;DHT22;276;48.392;9.950;2022-12-07T04:29:23;7.30;99.90
580;DHT22;276;48.392;9.950;2022-12-07T04:31:49;7.30;99.90
580;DHT22;276;48.392;9.950;2022-12-07T04:34:15;7.30;99.90
580;DHT22;276;48.392;9.950;2022-12-07T04:36:42;7.30;99.90
580;DHT22;276;48.392;9.950;2022-12-07T04:39:14;7.20;99.90
580;DHT22;276;48.392;9.950;2022-12-07T04:41:47;7.20;99.90
580;DHT22;276;48.392;9.950;2022-12-07T04:44:15;7.20;99.90
580;DHT22;276;48.392;9.950;2022-12-07T04:46:44;7.20;99.90
580;DHT22;276;48.392;9.950;2022-12-07T04:49:10;7.20;99.90
580;DHT22;276;48.392;9.950;2022-12-07T04:51:36;7.20;99.90
580;DHT22;276;48.392;9.950;2022-12-07T04:54:02;7.20;99.90
580;DHT22;276;48.392;9.950;2022-12-07T04:56:34;7.20;99.90
580;DHT22;276;48.392;9.950;2022-12-07T04:59:05;7.20;99.90
580;DHT22;276;48.392;9.950;2022-12-07T05:01:34;7.10;99.90
580;DHT22;276;48.392;9.950;2022-12-07T05:03:59;7.10;99.90
580;DHT22;276;48.392;9.950;2022-12-07T05:06:25;7.10;99.90
580;DHT22;276;48.392;9.950;2022-12-07T05:08:51;7.10;99.90
580;DHT22;276;48.392;9.950;2022-12-07T05:11:17;7.10;99.90
580;DHT22;276;48.392;9.950;2022-12-07T05:14:03;7.10;99.90
580;DHT22;276;48.392;9.950;2022-12-07T05:16:31;7.10;99.90
580;DHT22;276;48.392;9.950;2022-12-07T05:19:02;7.10;99.90
580;DHT22;276;48.392;9.950;2022-12-07T05:21:27;7.10;99.90
580;DHT22;276;48.392;9.950;2022-12-07T05:23:55;7.00;99.90
580;DHT22;276;48.392;9.950;2022-12-07T05:26:21;7.00;99.90
580;DHT22;276;48.392;9.950;2022-12-07T05:28:56;7.00;99.90
580;DHT22;276;48.392;9.950;2022-12-07T05:31:28;7.00;99.90
580;DHT22;276;48.392;9.950;2022-12-07T05:33:53;7.00;99.90
580;DHT22;276;48.392;9.950;2022-12-07T05:36:19;7.00;99.90
580;DHT22;276;48.392;9.950;2022-12-07T05:38:45;7.00;99.90
580;DHT22;276;48.392;9.950;2022-12-07T05:41:13;7.00;99.90
580;DHT22;276;48.392;9.950;2022-12-07T05:43:59;7.00;99.90
580;DHT22;276;48.392;9.950;2022-12-07T05:46:25;7.00;99.90
580;DHT22;276;48.392;9.950;2022-12-07T05:48:51;7.00;99.90
580;DHT22;276;48.392;9.950;2022-12-07T05:51:19;7.00;99.90
580;DHT22;276;48.392;9.950;2022-12-07T05:53:45;7.00;99.90
580;DHT22;276;48.392;9.950;2022-12-07T05:56:13;7.00;99.90
580;DHT22;276;48.392;9.950;2022-12-07T05:58:39;7.00;99.90
580;DHT22;276;48.392;9.950;2022-12-07T06:01:23;7.00;99.90
580;DHT22;276;48.392;9.950;2022-12-07T06:03:49;7.00;99.90
580;DHT22;276;48.392;9.950;2022-12-07T06:06:14;7.00;99.90
580;DHT22;276;48.392;9.950;2022-12-07T06:08:40;7.00;99.90
580;DHT22;276;48.392;9.950;2022-12-07T06:11:08;7.00;99.90
580;DHT22;276;48.392;9.950;2022-12-07T06:13:52;7.00;99.90
580;DHT22;276;48.392;9.950;2022-12-07T06:16:22;6.90;99.90
580;DHT22;276;48.392;9.950;2022-12-07T06:18:50;6.90;99.90
580;DHT22;276;48.392;9.950;2022-12-07T06:21:18;7.00;99.90
580;DHT22;276;48.392;9.950;2022-12-07T06:23:46;7.00;99.90
580;DHT22;276;48.392;9.950;2022-12-07T06:26:15;6.90;99.90
580;DHT22;276;48.392;9.950;2022-12-07T06:28:43;6.90;99.90
580;DHT22;276;48.392;9.950;2022-12-07T06:31:12;6.90;99.90
580;DHT22;276;48.392;9.950;2022-12-07T06:33:42;7.00;99.90
580;DHT22;276;48.392;9.950;2022-12-07T06:36:14;6.90;99.90
580;DHT22;276;48.392;9.950;2022-12-07T06:38:39;7.00;99.90
580;DHT22;276;48.392;9.950;2022-12-07T06:41:05;6.90;99.90
580;DHT22;276;48.392;9.950;2022-12-07T06:43:32;6.90;99.90
580;DHT22;276;48.392;9.950;2022-12-07T06:45:57;6.90;99.90
580;DHT22;276;48.392;9.950;2022-12-07T06:48:23;6.90;99.90
580;DHT22;276;48.392;9.950;2022-12-07T06:50:49;6.80;99.90
580;DHT22;276;48.392;9.950;2022-12-07T06:53:14;6.90;99.90
580;DHT22;276;48.392;9.950;2022-12-07T06:55:42;6.90;99.90
580;DHT22;276;48.392;9.950;2022-12-07T06:58:08;6.80;99.90
580;DHT22;276;48.392;9.950;2022-12-07T07:00:34;6.80;99.90
580;DHT22;276;48.392;9.950;2022-12-07T07:03:01;6.80;99.90
580;DHT22;276;48.392;9.950;2022-12-07T07:05:27;6.80;99.90
580;DHT22;276;48.392;9.950;2022-12-07T07:07:53;6.80;99.90
580;DHT22;276;48.392;9.950;2022-12-07T07:10:23;6.90;99.90
580;DHT22;276;48.392;9.950;2022-12-07T07:12:51;6.90;99.90
580;DHT22;276;48.392;9.950;2022-12-07T07:15:19;6.90;99.90
580;DHT22;276;48.392;9.950;2022-12-07T07:17:47;6.90;99.90
580;DHT22;276;48.392;9.950;2022-12-07T07:20:14;6.90;99.90
580;DHT22;276;48.392;9.950;2022-12-07T07:22:39;6.90;99.90
580;DHT22;276;48.392;9.950;2022-12-07T07:25:05;6.90;99.90
580;DHT22;276;48.392;9.950;2022-12-07T07:27:33;6.90;99.90
580;DHT22;276;48.392;9.950;2022-12-07T07:29:59;6.80;99.90
580;DHT22;276;48.392;9.950;2022-12-07T07:32:24;6.80;99.90
580;DHT22;276;48.392;9.950;2022-12-07T07:34:50;6.80;99.90
580;DHT22;276;48.392;9.950;2022-12-07T07:37:18;6.80;99.90
580;DHT22;276;48.392;9.950;2022-12-07T07:39:43;6.80;99.90
580;DHT22;276;48.392;9.950;2022-12-07T07:42:11;6.70;99.90
580;DHT22;276;48.392;9.950;2022-12-07T07:44:37;6.70;99.90
580;DHT22;276;48.392;9.950;2022-12-07T07:47:03;6.70;99.90
580;DHT22;276;48.392;9.950;2022-12-07T07:49:28;6.50;99.90
580;DHT22;276;48.392;9.950;2022-12-07T07:51:54;6.50;99.90
580;DHT22;276;48.392;9.950;2022-12-07T07:54:22;6.50;99.90
580;DHT22;276;48.392;9.950;2022-12-07T07:56:52;6.50;99.90
580;DHT22;276;48.392;9.950;2022-12-07T07:59:20;6.60;99.90
580;DHT22;276;48.392;9.950;2022-12-07T08:01:46;6.50;99.90
580;DHT22;276;48.392;9.950;2022-12-07T08:04:11;6.50;99.90
580;DHT22;276;48.392;9.950;2022-12-07T08:06:39;6.50;99.90
580;DHT22;276;48.392;9.950;2022-12-07T08:09:07;6.50;99.90
580;DHT22;276;48.392;9.950;2022-12-07T08:11:36;6.60;99.90
580;DHT22;276;48.392;9.950;2022-12-07T08:14:02;6.70;99.90
580;DHT22;276;48.392;9.950;2022-12-07T08:16:31;6.80;99.90
580;DHT22;276;48.392;9.950;2022-12-07T08:18:56;6.90;99.90
580;DHT22;276;48.392;9.950;2022-12-07T08:21:24;7.10;99.90
580;DHT22;276;48.392;9.950;2022-12-07T08:23:50;7.20;99.90
580;DHT22;276;48.392;9.950;2022-12-07T08:26:19;7.40;99.90
580;DHT22;276;48.392;9.950;2022-12-07T08:28:47;7.40;99.90
580;DHT22;276;48.392;9.950;2022-12-07T08:31:15;7.60;99.90
580;DHT22;276;48.392;9.950;2022-12-07T08:33:49;7.80;99.90
580;DHT22;276;48.392;9.950;2022-12-07T08:36:16;7.90;99.90
580;DHT22;276;48.392;9.950;2022-12-07T08:38:42;8.00;99.90
580;DHT22;276;48.392;9.950;2022-12-07T08:41:10;8.00;99.90
580;DHT22;276;48.392;9.950;2022-12-07T08:43:36;8.00;99.90
580;DHT22;276;48.392;9.950;2022-12-07T08:46:29;8.10;99.90
580;DHT22;276;48.392;9.950;2022-12-07T08:49:19;8.00;99.90
580;DHT22;276;48.392;9.950;2022-12-07T08:51:45;8.00;99.90
580;DHT22;276;48.392;9.950;2022-12-07T08:54:15;8.10;99.90
580;DHT22;276;48.392;9.950;2022-12-07T08:56:44;8.10;99.90
580;DHT22;276;48.392;9.950;2022-12-07T08:59:12;8.20;99.90
580;DHT22;276;48.392;9.950;2022-12-07T09:01:38;8.20;99.90
580;DHT22;276;48.392;9.950;2022-12-07T09:04:06;8.30;99.90
580;DHT22;276;48.392;9.950;2022-12-07T09:06:34;8.30;99.90
580;DHT22;276;48.392;9.950;2022-12-07T09:09:03;8.30;99.90
580;DHT22;276;48.392;9.950;2022-12-07T09:11:29;8.40;99.90
580;DHT22;276;48.392;9.950;2022-12-07T09:13:55;8.40;99.90
580;DHT22;276;48.392;9.950;2022-12-07T09:16:21;8.40;99.90
580;DHT22;276;48.392;9.950;2022-12-07T09:18:46;8.40;99.90
580;DHT22;276;48.392;9.950;2022-12-07T09:21:14;8.40;99.90
580;DHT22;276;48.392;9.950;2022-12-07T09:23:45;8.40;99.90
580;DHT22;276;48.392;9.950;2022-12-07T09:26:11;8.40;99.90
580;DHT22;276;48.392;9.950;2022-12-07T09:28:37;8.40;99.90
580;DHT22;276;48.392;9.950;2022-12-07T09:31:03;8.40;99.90
580;DHT22;276;48.392;9.950;2022-12-07T09:33:32;8.50;99.90
580;DHT22;276;48.392;9.950;2022-12-07T09:36:03;8.40;99.90
580;DHT22;276;48.392;9.950;2022-12-07T09:38:29;8.40;99.90
580;DHT22;276;48.392;9.950;2022-12-07T09:40:55;8.40;99.90
580;DHT22;276;48.392;9.950;2022-12-07T09:43:23;8.40;99.90
580;DHT22;276;48.392;9.950;2022-12-07T09:45:54;8.50;99.90
580;DHT22;276;48.392;9.950;2022-12-07T09:48:31;8.50;99.90
580;DHT22;276;48.392;9.950;2022-12-07T09:51:01;8.60;99.90
580;DHT22;276;48.392;9.950;2022-12-07T09:53:37;8.60;99.90
580;DHT22;276;48.392;9.950;2022-12-07T09:56:06;8.70;99.90
580;DHT22;276;48.392;9.950;2022-12-07T09:58:33;8.70;99.90
580;DHT22;276;48.392;9.950;2022-12-07T10:03:33;8.90;99.90
580;DHT22;276;48.392;9.950;2022-12-07T10:06:00;9.10;99.90
580;DHT22;276;48.392;9.950;2022-12-07T10:08:26;9.50;99.80
580;DHT22;276;48.392;9.950;2022-12-07T10:10:54;10.30;98.40
580;DHT22;276;48.392;9.950;2022-12-07T10:13:38;10.90;97.30
580;DHT22;276;48.392;9.950;2022-12-07T10:16:05;11.90;96.30
580;DHT22;276;48.392;9.950;2022-12-07T10:18:32;12.80;94.10
580;DHT22;276;48.392;9.950;2022-12-07T10:23:35;13.90;91.30
580;DHT22;276;48.392;9.950;2022-12-07T10:29:22;14.20;88.50
580;DHT22;276;48.392;9.950;2022-12-07T10:34:37;14.20;86.20
580;DHT22;276;48.392;9.950;2022-12-07T10:39:52;13.90;84.70
580;DHT22;276;48.392;9.950;2022-12-07T10:42:24;13.60;85.40
580;DHT22;276;48.392;9.950;2022-12-07T10:45:16;13.50;86.00
580;DHT22;276;48.392;9.950;2022-12-07T11:00:58;12.90;84.70
580;DHT22;276;48.392;9.950;2022-12-07T11:03:45;12.80;85.10
580;DHT22;276;48.392;9.950;2022-12-07T11:09:30;12.80;84.60
580;DHT22;276;48.392;9.950;2022-12-07T11:12:20;12.80;84.60
580;DHT22;276;48.392;9.950;2022-12-07T11:17:24;12.60;84.10
580;DHT22;276;48.392;9.950;2022-12-07T11:20:24;12.60;84.20
580;DHT22;276;48.392;9.950;2022-12-07T11:26:41;12.50;84.60
580;DHT22;276;48.392;9.950;2022-12-07T11:32:45;12.60;84.50
580;DHT22;276;48.392;9.950;2022-12-07T11:38:18;12.40;84.50
580;DHT22;276;48.392;9.950;2022-12-07T11:40:49;12.30;84.80
580;DHT22;276;48.392;9.950;2022-12-07T11:43:26;12.10;84.50
580;DHT22;276;48.392;9.950;2022-12-07T11:45:57;12.00;84.30
580;DHT22;276;48.392;9.950;2022-12-07T11:48:38;11.80;84.20
580;DHT22;276;48.392;9.950;2022-12-07T11:51:07;11.60;84.50
580;DHT22;276;48.392;9.950;2022-12-07T11:56:13;11.20;84.40
580;DHT22;276;48.392;9.950;2022-12-07T12:03:45;10.80;85.50
580;DHT22;276;48.392;9.950;2022-12-07T12:06:12;10.80;86.00
580;DHT22;276;48.392;9.950;2022-12-07T12:09:04;10.70;86.50
580;DHT22;276;48.392;9.950;2022-12-07T12:22:44;11.00;87.30
580;DHT22;276;48.392;9.950;2022-12-07T12:25:34;11.00;87.30
580;DHT22;276;48.392;9.950;2022-12-07T12:28:01;11.00;87.20
580;DHT22;276;48.392;9.950;2022-12-07T12:30:37;11.00;87.10
580;DHT22;276;48.392;9.950;2022-12-07T12:33:22;11.00;87.60
580;DHT22;276;48.392;9.950;2022-12-07T12:38:50;10.80;88.00
580;DHT22;276;48.392;9.950;2022-12-07T12:44:01;10.80;88.60
580;DHT22;276;48.392;9.950;2022-12-07T12:49:38;10.70;88.40
580;DHT22;276;48.392;9.950;2022-12-07T12:55:11;10.60;88.80
580;DHT22;276;48.392;9.950;2022-12-07T12:57:39;10.50;89.30
580;DHT22;276;48.392;9.950;2022-12-07T13:00:19;10.50;90.00
580;DHT22;276;48.392;9.950;2022-12-07T13:05:21;10.50;89.50
580;DHT22;276;48.392;9.950;2022-12-07T13:07:50;10.50;89.50
580;DHT22;276;48.392;9.950;2022-12-07T13:23:29;10.30;89.70
580;DHT22;276;48.392;9.950;2022-12-07T13:31:48;10.20;89.90
580;DHT22;276;48.392;9.950;2022-12-07T13:34:38;10.20;90.10
580;DHT22;276;48.392;9.950;2022-12-07T13:37:28;10.20;90.10
580;DHT22;276;48.392;9.950;2022-12-07T13:39:59;10.20;90.10
580;DHT22;276;48.392;9.950;2022-12-07T13:44:59;10.20;90.10
580;DHT22;276;48.392;9.950;2022-12-07T13:47:35;10.20;90.10
580;DHT22;276;48.392;9.950;2022-12-07T13:50:23;10.10;89.60
580;DHT22;276;48.392;9.950;2022-12-07T13:52:49;10.10;89.40
580;DHT22;276;48.392;9.950;2022-12-07T13:55:16;10.00;89.00
580;DHT22;276;48.392;9.950;2022-12-07T13:57:45;10.00;88.90
580;DHT22;276;48.392;9.950;2022-12-07T14:00:19;10.00;88.90
580;DHT22;276;48.392;9.950;2022-12-07T14:02:56;9.90;90.00
580;DHT22;276;48.392;9.950;2022-12-07T14:08:04;9.90;90.10
580;DHT22;276;48.392;9.950;2022-12-07T14:13:00;9.80;90.00
580;DHT22;276;48.392;9.950;2022-12-07T14:15:31;9.80;90.00
580;DHT22;276;48.392;9.950;2022-12-07T14:17:59;9.70;90.00
580;DHT22;276;48.392;9.950;2022-12-07T14:22:56;9.70;90.30
580;DHT22;276;48.392;9.950;2022-12-07T14:25:26;9.70;90.30
580;DHT22;276;48.392;9.950;2022-12-07T14:27:58;9.60;90.30
580;DHT22;276;48.392;9.950;2022-12-07T14:30:28;9.60;90.20
580;DHT22;276;48.392;9.950;2022-12-07T14:33:00;9.60;90.10
580;DHT22;276;48.392;9.950;2022-12-07T14:35:26;9.60;90.20
580;DHT22;276;48.392;9.950;2022-12-07T14:37:52;9.50;90.10
580;DHT22;276;48.392;9.950;2022-12-07T14:40:22;9.50;90.20
580;DHT22;276;48.392;9.950;2022-12-07T14:42:53;9.50;90.30
580;DHT22;276;48.392;9.950;2022-12-07T14:45:25;9.50;90.40
580;DHT22;276;48.392;9.950;2022-12-07T14:47:52;9.40;90.60
580;DHT22;276;48.392;9.950;2022-12-07T14:50:20;9.40;90.80
580;DHT22;276;48.392;9.950;2022-12-07T14:53:14;9.40;91.30
580;DHT22;276;48.392;9.950;2022-12-07T14:55:41;9.40;91.20
580;DHT22;276;48.392;9.950;2022-12-07T14:58:16;9.30;91.40
580;DHT22;276;48.392;9.950;2022-12-07T15:00:42;9.30;91.50
580;DHT22;276;48.392;9.950;2022-12-07T15:03:08;9.30;91.50
580;DHT22;276;48.392;9.950;2022-12-07T15:05:34;9.20;91.50
580;DHT22;276;48.392;9.950;2022-12-07T15:08:03;9.20;91.60
580;DHT22;276;48.392;9.950;2022-12-07T15:10:31;9.20;91.60
580;DHT22;276;48.392;9.950;2022-12-07T15:13:01;9.10;91.80
580;DHT22;276;48.392;9.950;2022-12-07T15:15:46;9.10;91.60
580;DHT22;276;48.392;9.950;2022-12-07T15:18:15;9.10;91.80
580;DHT22;276;48.392;9.950;2022-12-07T15:20:41;9.00;92.00
580;DHT22;276;48.392;9.950;2022-12-07T15:23:09;9.00;92.00
580;DHT22;276;48.392;9.950;2022-12-07T15:25:34;8.90;92.00
580;DHT22;276;48.392;9.950;2022-12-07T15:28:02;8.90;92.10
580;DHT22;276;48.392;9.950;2022-12-07T15:30:28;8.90;92.30
580;DHT22;276;48.392;9.950;2022-12-07T15:32:54;8.90;92.40
580;DHT22;276;48.392;9.950;2022-12-07T15:35:22;8.90;92.60
580;DHT22;276;48.392;9.950;2022-12-07T15:37:47;8.80;92.80
580;DHT22;276;48.392;9.950;2022-12-07T15:40:14;8.80;92.90
580;DHT22;276;48.392;9.950;2022-12-07T15:42:40;8.80;93.10
580;DHT22;276;48.392;9.950;2022-12-07T15:45:07;8.70;93.30
580;DHT22;276;48.392;9.950;2022-12-07T15:47:39;8.70;93.40
580;DHT22;276;48.392;9.950;2022-12-07T15:50:08;8.70;93.60
580;DHT22;276;48.392;9.950;2022-12-07T15:52:46;8.70;93.90
580;DHT22;276;48.392;9.950;2022-12-07T15:55:14;8.60;94.00
580;DHT22;276;48.392;9.950;2022-12-07T15:57:40;8.60;94.10
580;DHT22;276;48.392;9.950;2022-12-07T16:00:08;8.60;94.30
580;DHT22;276;48.392;9.950;2022-12-07T16:02:37;8.50;94.50
580;DHT22;276;48.392;9.950;2022-12-07T16:05:06;8.50;94.70
580;DHT22;276;48.392;9.950;2022-12-07T16:07:34;8.50;94.90
580;DHT22;276;48.392;9.950;2022-12-07T16:10:04;8.50;95.10
580;DHT22;276;48.392;9.950;2022-12-07T16:12:32;8.50;95.20
580;DHT22;276;48.392;9.950;2022-12-07T16:14:58;8.40;95.30
580;DHT22;276;48.392;9.950;2022-12-07T16:17:23;8.40;95.40
580;DHT22;276;48.392;9.950;2022-12-07T16:19:49;8.40;95.50
580;DHT22;276;48.392;9.950;2022-12-07T16:22:15;8.40;95.60
580;DHT22;276;48.392;9.950;2022-12-07T16:24:40;8.40;95.70
580;DHT22;276;48.392;9.950;2022-12-07T16:27:08;8.40;95.80
580;DHT22;276;48.392;9.950;2022-12-07T16:29:36;8.40;96.00
580;DHT22;276;48.392;9.950;2022-12-07T16:32:02;8.30;96.10
580;DHT22;276;48.392;9.950;2022-12-07T16:34:32;8.30;96.20
580;DHT22;276;48.392;9.950;2022-12-07T16:37:00;8.30;96.20
580;DHT22;276;48.392;9.950;2022-12-07T16:39:28;8.30;96.40
580;DHT22;276;48.392;9.950;2022-12-07T16:41:54;8.40;96.50
580;DHT22;276;48.392;9.950;2022-12-07T16:44:22;8.30;96.50
580;DHT22;276;48.392;9.950;2022-12-07T16:46:50;8.30;96.60
580;DHT22;276;48.392;9.950;2022-12-07T16:49:16;8.30;96.60
580;DHT22;276;48.392;9.950;2022-12-07T16:51:42;8.30;96.70
580;DHT22;276;48.392;9.950;2022-12-07T16:54:14;8.30;96.70
580;DHT22;276;48.392;9.950;2022-12-07T16:56:42;8.30;96.80
580;DHT22;276;48.392;9.950;2022-12-07T16:59:11;8.30;97.10
580;DHT22;276;48.392;9.950;2022-12-07T17:01:37;8.20;97.20
580;DHT22;276;48.392;9.950;2022-12-07T17:04:03;8.20;97.30
580;DHT22;276;48.392;9.950;2022-12-07T17:06:30;8.20;97.50
580;DHT22;276;48.392;9.950;2022-12-07T17:08:57;8.10;97.50
580;DHT22;276;48.392;9.950;2022-12-07T17:11:25;8.10;97.70
580;DHT22;276;48.392;9.950;2022-12-07T17:13:52;8.10;97.80
580;DHT22;276;48.392;9.950;2022-12-07T17:16:39;8.10;98.00
580;DHT22;276;48.392;9.950;2022-12-07T17:19:10;8.00;98.10
580;DHT22;276;48.392;9.950;2022-12-07T17:21:36;8.00;98.10
580;DHT22;276;48.392;9.950;2022-12-07T17:24:05;8.00;98.20
580;DHT22;276;48.392;9.950;2022-12-07T17:26:31;8.00;98.30
580;DHT22;276;48.392;9.950;2022-12-07T17:29:03;7.90;98.40
580;DHT22;276;48.392;9.950;2022-12-07T17:31:31;7.90;98.60
580;DHT22;276;48.392;9.950;2022-12-07T17:34:03;7.90;98.70
580;DHT22;276;48.392;9.950;2022-12-07T17:36:30;8.00;98.70
580;DHT22;276;48.392;9.950;2022-12-07T17:38:59;8.00;98.70
580;DHT22;276;48.392;9.950;2022-12-07T17:41:29;7.90;98.50
580;DHT22;276;48.392;9.950;2022-12-07T17:44:16;7.90;98.60
580;DHT22;276;48.392;9.950;2022-12-07T17:46:44;7.90;98.90
580;DHT22;276;48.392;9.950;2022-12-07T17:49:12;7.80;99.10
580;DHT22;276;48.392;9.950;2022-12-07T17:51:40;7.80;99.20
580;DHT22;276;48.392;9.950;2022-12-07T17:54:25;7.80;99.30
580;DHT22;276;48.392;9.950;2022-12-07T17:56:51;7.80;99.40
580;DHT22;276;48.392;9.950;2022-12-07T17:59:19;7.80;99.50
580;DHT22;276;48.392;9.950;2022-12-07T18:01:45;7.80;99.60
580;DHT22;276;48.392;9.950;2022-12-07T18:04:13;7.80;99.80
580;DHT22;276;48.392;9.950;2022-12-07T18:06:38;7.80;99.90
580;DHT22;276;48.392;9.950;2022-12-07T18:09:05;7.80;99.90
580;DHT22;276;48.392;9.950;2022-12-07T18:11:32;7.80;99.90
580;DHT22;276;48.392;9.950;2022-12-07T18:13:59;7.80;99.90
580;DHT22;276;48.392;9.950;2022-12-07T18:16:29;7.80;99.90
580;DHT22;276;48.392;9.950;2022-12-07T18:18:59;7.80;99.90
580;DHT22;276;48.392;9.950;2022-12-07T18:21:30;7.80;99.90
580;DHT22;276;48.392;9.950;2022-12-07T18:24:02;7.80;99.90
580;DHT22;276;48.392;9.950;2022-12-07T18:26:30;7.80;99.90
580;DHT22;276;48.392;9.950;2022-12-07T18:28:59;7.80;99.90
580;DHT22;276;48.392;9.950;2022-12-07T18:31:25;7.80;99.90
580;DHT22;276;48.392;9.950;2022-12-07T18:33:51;7.80;99.90
580;DHT22;276;48.392;9.950;2022-12-07T18:36:20;7.70;99.90
580;DHT22;276;48.392;9.950;2022-12-07T18:38:49;7.80;99.90
580;DHT22;276;48.392;9.950;2022-12-07T18:41:14;7.80;99.90
580;DHT22;276;48.392;9.950;2022-12-07T18:43:41;7.80;99.90
580;DHT22;276;48.392;9.950;2022-12-07T18:46:18;7.70;99.90
580;DHT22;276;48.392;9.950;2022-12-07T18:48:44;7.70;99.90
580;DHT22;276;48.392;9.950;2022-12-07T18:51:16;7.70;99.90
580;DHT22;276;48.392;9.950;2022-12-07T18:53:42;7.70;99.90
580;DHT22;276;48.392;9.950;2022-12-07T18:56:13;7.70;99.90
580;DHT22;276;48.392;9.950;2022-12-07T18:58:42;7.80;99.90
580;DHT22;276;48.392;9.950;2022-12-07T19:01:30;7.80;99.90
580;DHT22;276;48.392;9.950;2022-12-07T19:03:56;7.70;99.90
580;DHT22;276;48.392;9.950;2022-12-07T19:06:25;7.70;99.90
580;DHT22;276;48.392;9.950;2022-12-07T19:08:50;7.70;99.90
580;DHT22;276;48.392;9.950;2022-12-07T19:11:29;7.70;99.90
580;DHT22;276;48.392;9.950;2022-12-07T19:14:18;7.70;99.90
580;DHT22;276;48.392;9.950;2022-12-07T19:16:47;7.70;99.90
580;DHT22;276;48.392;9.950;2022-12-07T19:19:19;7.70;99.90
580;DHT22;276;48.392;9.950;2022-12-07T19:21:47;7.70;99.90
580;DHT22;276;48.392;9.950;2022-12-07T19:24:14;7.70;99.90
580;DHT22;276;48.392;9.950;2022-12-07T19:26:42;7.70;99.90
580;DHT22;276;48.392;9.950;2022-12-07T19:29:08;7.70;99.90